sensor_id;sensor_type;location;lat;lon;timestamp;P1;durP1;ratioP1;P2;durP2;ratioP2
48215;SDS011;34005;48.844;10.098;2022-11-20T00:00:25;7.78;;;5.90;;
48215;SDS011;34005;48.844;10.098;2022-11-20T00:02:53;7.32;;;5.97;;
48215;SDS011;34005;48.844;10.098;2022-11-20T00:05:20;6.55;;;5.40;;
48215;SDS011;34005;48.844;10.098;2022-11-20T00:07:48;6.63;;;5.55;;
48215;SDS011;34005;48.844;10.098;2022-11-20T00:10:16;7.82;;;6.55;;
48215;SDS011;34005;48.844;10.098;2022-11-20T00:12:43;8.02;;;5.32;;
48215;SDS011;34005;48.844;10.098;2022-11-20T00:15:12;6.22;;;5.38;;
48215;SDS011;34005;48.844;10.098;2022-11-20T00:17:40;9.00;;;5.57;;
48215;SDS011;34005;48.844;10.098;2022-11-20T00:20:08;8.57;;;6.00;;
48215;SDS011;34005;48.844;10.098;2022-11-20T00:22:36;6.38;;;5.72;;
48215;SDS011;34005;48.844;10.098;2022-11-20T00:25:04;7.03;;;5.30;;
48215;SDS011;34005;48.844;10.098;2022-11-20T00:27:32;7.10;;;6.28;;
48215;SDS011;34005;48.844;10.098;2022-11-20T00:29:59;5.68;;;5.18;;
48215;SDS011;34005;48.844;10.098;2022-11-20T00:32:28;6.88;;;6.13;;
48215;SDS011;34005;48.844;10.098;2022-11-20T00:34:56;6.57;;;5.65;;
48215;SDS011;34005;48.844;10.098;2022-11-20T00:37:24;7.55;;;5.63;;
48215;SDS011;34005;48.844;10.098;2022-11-20T00:39:51;6.03;;;5.40;;
48215;SDS011;34005;48.844;10.098;2022-11-20T00:42:19;8.57;;;4.95;;
48215;SDS011;34005;48.844;10.098;2022-11-20T00:44:46;7.85;;;5.32;;
48215;SDS011;34005;48.844;10.098;2022-11-20T00:47:14;8.60;;;5.78;;
48215;SDS011;34005;48.844;10.098;2022-11-20T00:49:43;6.95;;;5.55;;
48215;SDS011;34005;48.844;10.098;2022-11-20T00:52:10;6.22;;;5.30;;
48215;SDS011;34005;48.844;10.098;2022-11-20T00:54:38;8.13;;;5.85;;
48215;SDS011;34005;48.844;10.098;2022-11-20T00:57:05;6.45;;;5.60;;
48215;SDS011;34005;48.844;10.098;2022-11-20T00:59:33;8.65;;;5.22;;
48215;SDS011;34005;48.844;10.098;2022-11-20T01:02:00;5.55;;;5.05;;
48215;SDS011;34005;48.844;10.098;2022-11-20T01:04:28;5.95;;;5.35;;
48215;SDS011;34005;48.844;10.098;2022-11-20T01:06:57;6.38;;;5.22;;
48215;SDS011;34005;48.844;10.098;2022-11-20T01:09:25;6.22;;;5.40;;
48215;SDS011;34005;48.844;10.098;2022-11-20T01:11:52;5.93;;;5.10;;
48215;SDS011;34005;48.844;10.098;2022-11-20T01:14:20;5.70;;;5.20;;
48215;SDS011;34005;48.844;10.098;2022-11-20T01:16:48;4.90;;;4.40;;
48215;SDS011;34005;48.844;10.098;2022-11-20T01:19:18;7.38;;;5.10;;
48215;SDS011;34005;48.844;10.098;2022-11-20T01:21:47;6.15;;;5.10;;
48215;SDS011;34005;48.844;10.098;2022-11-20T01:24:18;5.10;;;4.20;;
48215;SDS011;34005;48.844;10.098;2022-11-20T01:26:47;5.88;;;4.35;;
48215;SDS011;34005;48.844;10.098;2022-11-20T01:29:18;4.70;;;4.00;;
48215;SDS011;34005;48.844;10.098;2022-11-20T01:31:47;4.45;;;3.60;;
48215;SDS011;34005;48.844;10.098;2022-11-20T01:34:16;4.82;;;4.32;;
48215;SDS011;34005;48.844;10.098;2022-11-20T01:36:46;7.18;;;4.05;;
48215;SDS011;34005;48.844;10.098;2022-11-20T01:39:15;5.15;;;3.95;;
48215;SDS011;34005;48.844;10.098;2022-11-20T01:41:47;5.40;;;3.70;;
48215;SDS011;34005;48.844;10.098;2022-11-20T01:47:29;3.95;;;3.17;;
48215;SDS011;34005;48.844;10.098;2022-11-20T01:50:03;5.63;;;3.75;;
48215;SDS011;34005;48.844;10.098;2022-11-20T01:52:34;4.00;;;3.65;;
48215;SDS011;34005;48.844;10.098;2022-11-20T01:55:06;5.32;;;3.65;;
48215;SDS011;34005;48.844;10.098;2022-11-20T01:57:37;5.10;;;3.47;;
48215;SDS011;34005;48.844;10.098;2022-11-20T02:00:06;4.45;;;3.38;;
48215;SDS011;34005;48.844;10.098;2022-11-20T02:02:36;5.38;;;3.80;;
48215;SDS011;34005;48.844;10.098;2022-11-20T02:05:09;4.53;;;3.55;;
48215;SDS011;34005;48.844;10.098;2022-11-20T02:07:44;4.35;;;3.20;;
48215;SDS011;34005;48.844;10.098;2022-11-20T02:10:13;3.92;;;3.30;;
48215;SDS011;34005;48.844;10.098;2022-11-20T02:12:43;3.92;;;3.05;;
48215;SDS011;34005;48.844;10.098;2022-11-20T02:15:28;4.07;;;3.53;;
48215;SDS011;34005;48.844;10.098;2022-11-20T02:17:56;4.40;;;3.20;;
48215;SDS011;34005;48.844;10.098;2022-11-20T02:20:24;4.53;;;3.70;;
48215;SDS011;34005;48.844;10.098;2022-11-20T02:22:53;5.63;;;3.63;;
48215;SDS011;34005;48.844;10.098;2022-11-20T02:25:25;4.32;;;3.35;;
48215;SDS011;34005;48.844;10.098;2022-11-20T02:27:55;4.82;;;3.47;;
48215;SDS011;34005;48.844;10.098;2022-11-20T02:30:23;3.35;;;3.05;;
48215;SDS011;34005;48.844;10.098;2022-11-20T02:32:50;3.10;;;2.80;;
48215;SDS011;34005;48.844;10.098;2022-11-20T02:38:11;4.07;;;2.67;;
48215;SDS011;34005;48.844;10.098;2022-11-20T02:40:42;3.67;;;3.28;;
48215;SDS011;34005;48.844;10.098;2022-11-20T02:43:10;3.83;;;2.90;;
48215;SDS011;34005;48.844;10.098;2022-11-20T02:45:37;4.75;;;2.78;;
48215;SDS011;34005;48.844;10.098;2022-11-20T02:48:05;3.38;;;3.08;;
48215;SDS011;34005;48.844;10.098;2022-11-20T02:50:35;3.75;;;2.67;;
48215;SDS011;34005;48.844;10.098;2022-11-20T02:53:05;4.53;;;3.20;;
48215;SDS011;34005;48.844;10.098;2022-11-20T02:55:32;6.53;;;3.40;;
48215;SDS011;34005;48.844;10.098;2022-11-20T02:58:01;3.05;;;2.65;;
48215;SDS011;34005;48.844;10.098;2022-11-20T03:00:29;4.18;;;3.00;;
48215;SDS011;34005;48.844;10.098;2022-11-20T03:02:57;3.10;;;2.80;;
48215;SDS011;34005;48.844;10.098;2022-11-20T03:05:25;4.40;;;3.03;;
48215;SDS011;34005;48.844;10.098;2022-11-20T03:07:53;3.75;;;3.05;;
48215;SDS011;34005;48.844;10.098;2022-11-20T03:10:20;3.63;;;2.45;;
48215;SDS011;34005;48.844;10.098;2022-11-20T03:12:52;3.13;;;2.63;;
48215;SDS011;34005;48.844;10.098;2022-11-20T03:15:21;2.50;;;2.30;;
48215;SDS011;34005;48.844;10.098;2022-11-20T03:17:52;3.67;;;2.67;;
48215;SDS011;34005;48.844;10.098;2022-11-20T03:20:20;4.22;;;2.85;;
48215;SDS011;34005;48.844;10.098;2022-11-20T03:22:48;4.18;;;2.70;;
48215;SDS011;34005;48.844;10.098;2022-11-20T03:25:15;3.83;;;2.50;;
48215;SDS011;34005;48.844;10.098;2022-11-20T03:27:43;3.15;;;2.85;;
48215;SDS011;34005;48.844;10.098;2022-11-20T03:30:11;4.22;;;2.47;;
48215;SDS011;34005;48.844;10.098;2022-11-20T03:32:40;2.63;;;2.22;;
48215;SDS011;34005;48.844;10.098;2022-11-20T03:35:08;2.28;;;2.08;;
48215;SDS011;34005;48.844;10.098;2022-11-20T03:37:36;3.42;;;2.75;;
48215;SDS011;34005;48.844;10.098;2022-11-20T03:40:04;3.28;;;2.97;;
48215;SDS011;34005;48.844;10.098;2022-11-20T03:42:32;3.80;;;2.65;;
48215;SDS011;34005;48.844;10.098;2022-11-20T03:45:12;3.42;;;3.13;;
48215;SDS011;34005;48.844;10.098;2022-11-20T03:47:41;3.15;;;2.75;;
48215;SDS011;34005;48.844;10.098;2022-11-20T03:50:09;4.10;;;3.03;;
48215;SDS011;34005;48.844;10.098;2022-11-20T03:52:39;3.25;;;2.90;;
48215;SDS011;34005;48.844;10.098;2022-11-20T03:55:07;4.05;;;3.17;;
48215;SDS011;34005;48.844;10.098;2022-11-20T03:57:35;3.85;;;3.03;;
48215;SDS011;34005;48.844;10.098;2022-11-20T04:00:03;3.72;;;3.28;;
48215;SDS011;34005;48.844;10.098;2022-11-20T04:02:31;3.75;;;3.28;;
48215;SDS011;34005;48.844;10.098;2022-11-20T04:05:00;4.38;;;3.38;;
48215;SDS011;34005;48.844;10.098;2022-11-20T04:07:28;3.28;;;2.67;;
48215;SDS011;34005;48.844;10.098;2022-11-20T04:09:55;3.63;;;3.08;;
48215;SDS011;34005;48.844;10.098;2022-11-20T04:12:23;4.07;;;3.45;;
48215;SDS011;34005;48.844;10.098;2022-11-20T04:14:50;4.93;;;2.97;;
48215;SDS011;34005;48.844;10.098;2022-11-20T04:17:18;5.20;;;3.95;;
48215;SDS011;34005;48.844;10.098;2022-11-20T04:19:46;3.13;;;2.83;;
48215;SDS011;34005;48.844;10.098;2022-11-20T04:22:15;3.85;;;2.92;;
48215;SDS011;34005;48.844;10.098;2022-11-20T04:24:42;4.53;;;3.95;;
48215;SDS011;34005;48.844;10.098;2022-11-20T04:27:10;3.45;;;2.55;;
48215;SDS011;34005;48.844;10.098;2022-11-20T04:29:37;3.63;;;3.00;;
48215;SDS011;34005;48.844;10.098;2022-11-20T04:32:05;2.45;;;2.22;;
48215;SDS011;34005;48.844;10.098;2022-11-20T04:34:32;3.50;;;2.70;;
48215;SDS011;34005;48.844;10.098;2022-11-20T04:37:00;3.15;;;2.85;;
48215;SDS011;34005;48.844;10.098;2022-11-20T04:39:29;3.45;;;2.80;;
48215;SDS011;34005;48.844;10.098;2022-11-20T04:41:57;3.72;;;2.65;;
48215;SDS011;34005;48.844;10.098;2022-11-20T04:44:38;2.75;;;2.33;;
48215;SDS011;34005;48.844;10.098;2022-11-20T04:47:06;5.00;;;3.30;;
48215;SDS011;34005;48.844;10.098;2022-11-20T04:49:34;4.20;;;2.60;;
48215;SDS011;34005;48.844;10.098;2022-11-20T04:52:01;3.03;;;2.72;;
48215;SDS011;34005;48.844;10.098;2022-11-20T04:54:30;2.75;;;2.53;;
48215;SDS011;34005;48.844;10.098;2022-11-20T04:56:58;2.78;;;2.42;;
48215;SDS011;34005;48.844;10.098;2022-11-20T04:59:26;4.50;;;2.40;;
48215;SDS011;34005;48.844;10.098;2022-11-20T05:01:54;2.38;;;2.17;;
48215;SDS011;34005;48.844;10.098;2022-11-20T05:04:21;4.35;;;2.85;;
48215;SDS011;34005;48.844;10.098;2022-11-20T05:06:49;4.72;;;2.50;;
48215;SDS011;34005;48.844;10.098;2022-11-20T05:09:17;2.45;;;2.13;;
48215;SDS011;34005;48.844;10.098;2022-11-20T05:11:46;3.78;;;2.53;;
48215;SDS011;34005;48.844;10.098;2022-11-20T05:14:16;3.07;;;2.60;;
48215;SDS011;34005;48.844;10.098;2022-11-20T05:16:44;3.28;;;2.10;;
48215;SDS011;34005;48.844;10.098;2022-11-20T05:19:12;2.17;;;2.00;;
48215;SDS011;34005;48.844;10.098;2022-11-20T05:21:39;3.40;;;2.33;;
48215;SDS011;34005;48.844;10.098;2022-11-20T05:24:07;2.63;;;2.38;;
48215;SDS011;34005;48.844;10.098;2022-11-20T05:26:35;3.63;;;2.55;;
48215;SDS011;34005;48.844;10.098;2022-11-20T05:29:04;2.45;;;2.15;;
48215;SDS011;34005;48.844;10.098;2022-11-20T05:31:31;2.20;;;2.00;;
48215;SDS011;34005;48.844;10.098;2022-11-20T05:33:59;1.80;;;1.70;;
48215;SDS011;34005;48.844;10.098;2022-11-20T05:36:27;2.25;;;1.90;;
48215;SDS011;34005;48.844;10.098;2022-11-20T05:38:54;2.03;;;1.90;;
48215;SDS011;34005;48.844;10.098;2022-11-20T05:41:26;2.95;;;2.15;;
48215;SDS011;34005;48.844;10.098;2022-11-20T05:43:55;3.53;;;2.22;;
48215;SDS011;34005;48.844;10.098;2022-11-20T05:46:25;3.72;;;2.40;;
48215;SDS011;34005;48.844;10.098;2022-11-20T05:48:55;7.28;;;2.55;;
48215;SDS011;34005;48.844;10.098;2022-11-20T05:51:23;2.50;;;2.17;;
48215;SDS011;34005;48.844;10.098;2022-11-20T05:53:51;2.50;;;2.30;;
48215;SDS011;34005;48.844;10.098;2022-11-20T05:56:19;3.13;;;2.40;;
48215;SDS011;34005;48.844;10.098;2022-11-20T05:58:48;3.42;;;2.20;;
48215;SDS011;34005;48.844;10.098;2022-11-20T06:01:17;2.20;;;2.00;;
48215;SDS011;34005;48.844;10.098;2022-11-20T06:03:47;2.42;;;2.22;;
48215;SDS011;34005;48.844;10.098;2022-11-20T06:06:17;4.20;;;2.17;;
48215;SDS011;34005;48.844;10.098;2022-11-20T06:08:46;3.67;;;2.38;;
48215;SDS011;34005;48.844;10.098;2022-11-20T06:11:14;2.30;;;2.10;;
48215;SDS011;34005;48.844;10.098;2022-11-20T06:13:42;3.53;;;2.03;;
48215;SDS011;34005;48.844;10.098;2022-11-20T06:16:11;2.40;;;1.90;;
48215;SDS011;34005;48.844;10.098;2022-11-20T06:18:40;2.13;;;1.92;;
48215;SDS011;34005;48.844;10.098;2022-11-20T06:21:10;2.28;;;2.05;;
48215;SDS011;34005;48.844;10.098;2022-11-20T06:23:39;2.17;;;1.98;;
48215;SDS011;34005;48.844;10.098;2022-11-20T06:26:08;2.90;;;2.53;;
48215;SDS011;34005;48.844;10.098;2022-11-20T06:28:37;2.92;;;2.40;;
48215;SDS011;34005;48.844;10.098;2022-11-20T06:31:05;3.38;;;2.20;;
48215;SDS011;34005;48.844;10.098;2022-11-20T06:33:34;3.35;;;2.47;;
48215;SDS011;34005;48.844;10.098;2022-11-20T06:36:02;2.35;;;2.15;;
48215;SDS011;34005;48.844;10.098;2022-11-20T06:38:37;2.22;;;2.03;;
48215;SDS011;34005;48.844;10.098;2022-11-20T06:41:05;2.60;;;2.30;;
48215;SDS011;34005;48.844;10.098;2022-11-20T06:43:34;3.50;;;2.20;;
48215;SDS011;34005;48.844;10.098;2022-11-20T06:46:01;2.67;;;2.30;;
48215;SDS011;34005;48.844;10.098;2022-11-20T06:48:29;2.45;;;2.03;;
48215;SDS011;34005;48.844;10.098;2022-11-20T06:50:57;3.47;;;2.05;;
48215;SDS011;34005;48.844;10.098;2022-11-20T06:53:25;2.30;;;2.03;;
48215;SDS011;34005;48.844;10.098;2022-11-20T06:55:55;2.30;;;2.10;;
48215;SDS011;34005;48.844;10.098;2022-11-20T06:58:25;2.25;;;2.05;;
48215;SDS011;34005;48.844;10.098;2022-11-20T07:00:53;2.67;;;2.42;;
48215;SDS011;34005;48.844;10.098;2022-11-20T07:03:24;2.97;;;2.10;;
48215;SDS011;34005;48.844;10.098;2022-11-20T07:05:53;3.00;;;2.47;;
48215;SDS011;34005;48.844;10.098;2022-11-20T07:08:21;2.38;;;2.13;;
48215;SDS011;34005;48.844;10.098;2022-11-20T07:10:49;2.78;;;1.92;;
48215;SDS011;34005;48.844;10.098;2022-11-20T07:13:18;2.25;;;2.05;;
48215;SDS011;34005;48.844;10.098;2022-11-20T07:15:46;2.25;;;2.08;;
48215;SDS011;34005;48.844;10.098;2022-11-20T07:18:13;2.75;;;1.67;;
48215;SDS011;34005;48.844;10.098;2022-11-20T07:20:41;2.10;;;2.00;;
48215;SDS011;34005;48.844;10.098;2022-11-20T07:23:09;1.63;;;1.40;;
48215;SDS011;34005;48.844;10.098;2022-11-20T07:25:36;2.17;;;1.45;;
48215;SDS011;34005;48.844;10.098;2022-11-20T07:28:04;2.35;;;1.63;;
48215;SDS011;34005;48.844;10.098;2022-11-20T07:30:33;2.00;;;1.80;;
48215;SDS011;34005;48.844;10.098;2022-11-20T07:33:03;2.05;;;1.85;;
48215;SDS011;34005;48.844;10.098;2022-11-20T07:35:30;1.63;;;1.27;;
48215;SDS011;34005;48.844;10.098;2022-11-20T07:37:58;3.17;;;1.85;;
48215;SDS011;34005;48.844;10.098;2022-11-20T07:40:26;1.83;;;1.70;;
48215;SDS011;34005;48.844;10.098;2022-11-20T07:42:54;1.80;;;1.20;;
48215;SDS011;34005;48.844;10.098;2022-11-20T07:45:23;2.35;;;1.40;;
48215;SDS011;34005;48.844;10.098;2022-11-20T07:47:52;1.67;;;1.45;;
48215;SDS011;34005;48.844;10.098;2022-11-20T07:50:20;2.33;;;1.75;;
48215;SDS011;34005;48.844;10.098;2022-11-20T08:17:14;1.73;;;1.63;;
48215;SDS011;34005;48.844;10.098;2022-11-20T09:43:00;1.52;;;1.40;;
48215;SDS011;34005;48.844;10.098;2022-11-20T09:48:25;1.73;;;1.10;;
48215;SDS011;34005;48.844;10.098;2022-11-20T09:51:05;3.67;;;1.10;;
48215;SDS011;34005;48.844;10.098;2022-11-20T09:53:42;1.35;;;1.25;;
48215;SDS011;34005;48.844;10.098;2022-11-20T09:56:20;3.17;;;1.63;;
48215;SDS011;34005;48.844;10.098;2022-11-20T09:58:50;1.58;;;1.30;;
48215;SDS011;34005;48.844;10.098;2022-11-20T10:01:19;2.67;;;1.40;;
48215;SDS011;34005;48.844;10.098;2022-11-20T10:03:52;2.75;;;1.40;;
48215;SDS011;34005;48.844;10.098;2022-11-20T10:06:24;2.63;;;1.02;;
48215;SDS011;34005;48.844;10.098;2022-11-20T10:09:03;1.83;;;1.02;;
48215;SDS011;34005;48.844;10.098;2022-11-20T10:11:44;1.52;;;0.77;;
48215;SDS011;34005;48.844;10.098;2022-11-20T10:14:20;1.83;;;1.00;;
48215;SDS011;34005;48.844;10.098;2022-11-20T10:16:58;2.28;;;1.33;;
48215;SDS011;34005;48.844;10.098;2022-11-20T10:19:39;1.55;;;1.02;;
48215;SDS011;34005;48.844;10.098;2022-11-20T10:22:25;2.15;;;1.42;;
48215;SDS011;34005;48.844;10.098;2022-11-20T10:25:01;1.55;;;1.42;;
48215;SDS011;34005;48.844;10.098;2022-11-20T10:27:50;1.55;;;1.42;;
48215;SDS011;34005;48.844;10.098;2022-11-20T10:30:30;1.27;;;1.15;;
48215;SDS011;34005;48.844;10.098;2022-11-20T10:33:05;0.80;;;0.80;;
48215;SDS011;34005;48.844;10.098;2022-11-20T10:35:41;1.67;;;1.20;;
48215;SDS011;34005;48.844;10.098;2022-11-20T10:38:12;1.40;;;1.30;;
48215;SDS011;34005;48.844;10.098;2022-11-20T10:40:44;1.08;;;0.98;;
48215;SDS011;34005;48.844;10.098;2022-11-20T10:43:16;1.90;;;0.90;;
48215;SDS011;34005;48.844;10.098;2022-11-20T10:45:49;1.55;;;1.42;;
48215;SDS011;34005;48.844;10.098;2022-11-20T10:48:22;2.35;;;1.48;;
48215;SDS011;34005;48.844;10.098;2022-11-20T10:51:03;1.67;;;1.30;;
48215;SDS011;34005;48.844;10.098;2022-11-20T10:53:42;1.33;;;1.23;;
48215;SDS011;34005;48.844;10.098;2022-11-20T10:56:19;1.65;;;1.23;;
48215;SDS011;34005;48.844;10.098;2022-11-20T10:58:52;1.43;;;1.30;;
48215;SDS011;34005;48.844;10.098;2022-11-20T11:01:31;1.30;;;1.20;;
48215;SDS011;34005;48.844;10.098;2022-11-20T11:03:59;1.33;;;1.23;;
48215;SDS011;34005;48.844;10.098;2022-11-20T11:06:29;2.38;;;1.60;;
48215;SDS011;34005;48.844;10.098;2022-11-20T11:09:04;2.20;;;2.05;;
48215;SDS011;34005;48.844;10.098;2022-11-20T11:11:37;2.40;;;2.03;;
48215;SDS011;34005;48.844;10.098;2022-11-20T11:14:05;1.40;;;1.27;;
48215;SDS011;34005;48.844;10.098;2022-11-20T11:16:35;3.05;;;2.15;;
48215;SDS011;34005;48.844;10.098;2022-11-20T11:19:03;2.28;;;1.75;;
48215;SDS011;34005;48.844;10.098;2022-11-20T11:21:31;2.00;;;1.80;;
48215;SDS011;34005;48.844;10.098;2022-11-20T11:24:00;2.13;;;1.58;;
48215;SDS011;34005;48.844;10.098;2022-11-20T11:26:50;3.00;;;1.60;;
48215;SDS011;34005;48.844;10.098;2022-11-20T11:29:20;1.83;;;1.38;;
48215;SDS011;34005;48.844;10.098;2022-11-20T11:31:49;1.80;;;1.42;;
48215;SDS011;34005;48.844;10.098;2022-11-20T11:34:17;1.48;;;1.38;;
48215;SDS011;34005;48.844;10.098;2022-11-20T11:36:49;1.35;;;1.25;;
48215;SDS011;34005;48.844;10.098;2022-11-20T11:39:22;1.95;;;1.30;;
48215;SDS011;34005;48.844;10.098;2022-11-20T11:41:52;1.30;;;1.20;;
48215;SDS011;34005;48.844;10.098;2022-11-20T11:44:20;2.50;;;1.50;;
48215;SDS011;34005;48.844;10.098;2022-11-20T11:47:11;2.95;;;1.58;;
48215;SDS011;34005;48.844;10.098;2022-11-20T11:49:48;3.13;;;1.45;;
48215;SDS011;34005;48.844;10.098;2022-11-20T11:52:17;1.50;;;1.40;;
48215;SDS011;34005;48.844;10.098;2022-11-20T11:54:49;1.85;;;1.38;;
48215;SDS011;34005;48.844;10.098;2022-11-20T11:57:23;2.10;;;1.40;;
48215;SDS011;34005;48.844;10.098;2022-11-20T11:59:59;1.83;;;1.25;;
48215;SDS011;34005;48.844;10.098;2022-11-20T12:02:36;1.50;;;1.40;;
48215;SDS011;34005;48.844;10.098;2022-11-20T12:05:09;1.65;;;1.55;;
48215;SDS011;34005;48.844;10.098;2022-11-20T12:07:45;1.38;;;1.27;;
48215;SDS011;34005;48.844;10.098;2022-11-20T12:10:16;2.53;;;1.02;;
48215;SDS011;34005;48.844;10.098;2022-11-20T12:12:48;1.70;;;1.20;;
48215;SDS011;34005;48.844;10.098;2022-11-20T12:15:22;1.70;;;1.20;;
48215;SDS011;34005;48.844;10.098;2022-11-20T12:17:57;1.60;;;1.10;;
48215;SDS011;34005;48.844;10.098;2022-11-20T12:20:26;1.25;;;1.15;;
48215;SDS011;34005;48.844;10.098;2022-11-20T12:23:01;1.50;;;1.15;;
48215;SDS011;34005;48.844;10.098;2022-11-20T12:25:35;1.75;;;1.17;;
48215;SDS011;34005;48.844;10.098;2022-11-20T12:28:12;1.20;;;1.05;;
48215;SDS011;34005;48.844;10.098;2022-11-20T12:30:53;1.73;;;1.10;;
48215;SDS011;34005;48.844;10.098;2022-11-20T12:33:40;2.17;;;1.38;;
48215;SDS011;34005;48.844;10.098;2022-11-20T12:36:32;1.27;;;1.17;;
48215;SDS011;34005;48.844;10.098;2022-11-20T12:39:07;1.00;;;1.00;;
48215;SDS011;34005;48.844;10.098;2022-11-20T12:41:48;2.33;;;1.92;;
48215;SDS011;34005;48.844;10.098;2022-11-20T12:44:56;1.50;;;1.40;;
48215;SDS011;34005;48.844;10.098;2022-11-20T12:47:41;3.35;;;1.45;;
48215;SDS011;34005;48.844;10.098;2022-11-20T12:50:22;1.58;;;1.42;;
48215;SDS011;34005;48.844;10.098;2022-11-20T12:53:01;1.17;;;0.98;;
48215;SDS011;34005;48.844;10.098;2022-11-20T12:55:33;1.52;;;1.17;;
48215;SDS011;34005;48.844;10.098;2022-11-20T12:58:10;0.70;;;0.70;;
48215;SDS011;34005;48.844;10.098;2022-11-20T13:00:47;1.65;;;1.20;;
48215;SDS011;34005;48.844;10.098;2022-11-20T13:03:34;1.10;;;1.00;;
48215;SDS011;34005;48.844;10.098;2022-11-20T13:06:13;2.05;;;1.63;;
48215;SDS011;34005;48.844;10.098;2022-11-20T13:08:45;1.25;;;1.13;;
48215;SDS011;34005;48.844;10.098;2022-11-20T13:11:21;1.20;;;1.10;;
48215;SDS011;34005;48.844;10.098;2022-11-20T13:14:00;1.33;;;1.20;;
48215;SDS011;34005;48.844;10.098;2022-11-20T13:16:41;2.47;;;1.38;;
48215;SDS011;34005;48.844;10.098;2022-11-20T13:19:15;1.10;;;1.00;;
48215;SDS011;34005;48.844;10.098;2022-11-20T13:21:45;1.88;;;1.60;;
48215;SDS011;34005;48.844;10.098;2022-11-20T13:24:22;3.00;;;1.50;;
48215;SDS011;34005;48.844;10.098;2022-11-20T13:29:58;1.92;;;1.80;;
48215;SDS011;34005;48.844;10.098;2022-11-20T13:32:27;2.90;;;1.65;;
48215;SDS011;34005;48.844;10.098;2022-11-20T13:34:58;1.45;;;1.35;;
48215;SDS011;34005;48.844;10.098;2022-11-20T13:37:30;2.45;;;1.80;;
48215;SDS011;34005;48.844;10.098;2022-11-20T13:43:00;3.65;;;1.95;;
48215;SDS011;34005;48.844;10.098;2022-11-20T13:45:31;3.72;;;1.25;;
48215;SDS011;34005;48.844;10.098;2022-11-20T13:48:00;2.25;;;1.40;;
48215;SDS011;34005;48.844;10.098;2022-11-20T13:50:39;1.90;;;1.75;;
48215;SDS011;34005;48.844;10.098;2022-11-20T13:53:36;2.00;;;1.50;;
48215;SDS011;34005;48.844;10.098;2022-11-20T13:56:18;1.85;;;1.60;;
48215;SDS011;34005;48.844;10.098;2022-11-20T13:58:54;2.38;;;1.75;;
48215;SDS011;34005;48.844;10.098;2022-11-20T14:01:30;2.13;;;1.60;;
48215;SDS011;34005;48.844;10.098;2022-11-20T14:03:59;1.52;;;1.42;;
48215;SDS011;34005;48.844;10.098;2022-11-20T14:06:38;2.05;;;1.95;;
48215;SDS011;34005;48.844;10.098;2022-11-20T14:09:12;1.73;;;1.60;;
48215;SDS011;34005;48.844;10.098;2022-11-20T14:11:51;2.67;;;1.50;;
48215;SDS011;34005;48.844;10.098;2022-11-20T14:14:20;1.52;;;1.30;;
48215;SDS011;34005;48.844;10.098;2022-11-20T14:16:49;3.63;;;1.45;;
48215;SDS011;34005;48.844;10.098;2022-11-20T14:19:27;1.90;;;1.50;;
48215;SDS011;34005;48.844;10.098;2022-11-20T14:22:16;1.88;;;1.33;;
48215;SDS011;34005;48.844;10.098;2022-11-20T14:24:47;1.60;;;1.33;;
48215;SDS011;34005;48.844;10.098;2022-11-20T14:27:16;1.40;;;1.30;;
48215;SDS011;34005;48.844;10.098;2022-11-20T14:29:49;2.05;;;1.83;;
48215;SDS011;34005;48.844;10.098;2022-11-20T14:32:18;1.92;;;1.50;;
48215;SDS011;34005;48.844;10.098;2022-11-20T14:34:49;2.22;;;1.38;;
48215;SDS011;34005;48.844;10.098;2022-11-20T14:37:19;1.90;;;1.60;;
48215;SDS011;34005;48.844;10.098;2022-11-20T14:39:50;1.20;;;1.10;;
48215;SDS011;34005;48.844;10.098;2022-11-20T14:42:20;2.42;;;1.20;;
48215;SDS011;34005;48.844;10.098;2022-11-20T14:44:49;2.78;;;1.50;;
48215;SDS011;34005;48.844;10.098;2022-11-20T14:47:21;3.95;;;1.25;;
48215;SDS011;34005;48.844;10.098;2022-11-20T14:49:50;2.10;;;1.90;;
48215;SDS011;34005;48.844;10.098;2022-11-20T14:52:20;3.38;;;1.67;;
48215;SDS011;34005;48.844;10.098;2022-11-20T14:54:51;2.30;;;1.52;;
48215;SDS011;34005;48.844;10.098;2022-11-20T14:57:21;1.17;;;1.08;;
48215;SDS011;34005;48.844;10.098;2022-11-20T15:00:04;2.58;;;1.70;;
48215;SDS011;34005;48.844;10.098;2022-11-20T15:02:34;1.60;;;1.27;;
48215;SDS011;34005;48.844;10.098;2022-11-20T15:05:02;2.13;;;1.50;;
48215;SDS011;34005;48.844;10.098;2022-11-20T15:07:30;2.35;;;1.80;;
48215;SDS011;34005;48.844;10.098;2022-11-20T15:10:03;1.75;;;1.60;;
48215;SDS011;34005;48.844;10.098;2022-11-20T15:12:32;2.22;;;1.50;;
48215;SDS011;34005;48.844;10.098;2022-11-20T15:15:02;2.55;;;1.40;;
48215;SDS011;34005;48.844;10.098;2022-11-20T15:17:31;1.55;;;1.45;;
48215;SDS011;34005;48.844;10.098;2022-11-20T15:20:04;3.10;;;1.75;;
48215;SDS011;34005;48.844;10.098;2022-11-20T15:22:38;3.25;;;1.48;;
48215;SDS011;34005;48.844;10.098;2022-11-20T15:25:12;2.42;;;1.70;;
48215;SDS011;34005;48.844;10.098;2022-11-20T15:27:41;1.33;;;1.10;;
48215;SDS011;34005;48.844;10.098;2022-11-20T15:30:13;4.38;;;1.42;;
48215;SDS011;34005;48.844;10.098;2022-11-20T15:32:43;3.42;;;1.20;;
48215;SDS011;34005;48.844;10.098;2022-11-20T15:35:12;4.38;;;1.52;;
48215;SDS011;34005;48.844;10.098;2022-11-20T15:37:40;1.33;;;1.00;;
48215;SDS011;34005;48.844;10.098;2022-11-20T15:40:09;2.25;;;1.40;;
48215;SDS011;34005;48.844;10.098;2022-11-20T15:42:38;2.60;;;1.20;;
48215;SDS011;34005;48.844;10.098;2022-11-20T15:53:31;1.00;;;0.90;;
48215;SDS011;34005;48.844;10.098;2022-11-20T15:55:58;1.77;;;1.30;;
48215;SDS011;34005;48.844;10.098;2022-11-20T15:58:28;1.77;;;1.02;;
48215;SDS011;34005;48.844;10.098;2022-11-20T16:01:49;2.45;;;1.00;;
48215;SDS011;34005;48.844;10.098;2022-11-20T16:05:09;3.15;;;2.08;;
48215;SDS011;34005;48.844;10.098;2022-11-20T16:08:15;2.90;;;1.58;;
48215;SDS011;34005;48.844;10.098;2022-11-20T16:10:43;1.40;;;1.23;;
48215;SDS011;34005;48.844;10.098;2022-11-20T16:13:11;5.93;;;1.60;;
48215;SDS011;34005;48.844;10.098;2022-11-20T16:16:01;5.45;;;2.08;;
48215;SDS011;34005;48.844;10.098;2022-11-20T16:18:32;2.45;;;1.65;;
48215;SDS011;34005;48.844;10.098;2022-11-20T16:21:01;1.65;;;1.35;;
48215;SDS011;34005;48.844;10.098;2022-11-20T16:23:41;5.05;;;1.85;;
48215;SDS011;34005;48.844;10.098;2022-11-20T16:26:15;3.03;;;1.17;;
48215;SDS011;34005;48.844;10.098;2022-11-20T16:28:59;2.35;;;1.30;;
48215;SDS011;34005;48.844;10.098;2022-11-20T16:31:39;3.15;;;1.23;;
48215;SDS011;34005;48.844;10.098;2022-11-20T16:34:25;3.05;;;1.25;;
48215;SDS011;34005;48.844;10.098;2022-11-20T16:36:57;4.38;;;1.80;;
48215;SDS011;34005;48.844;10.098;2022-11-20T16:39:28;3.55;;;2.63;;
48215;SDS011;34005;48.844;10.098;2022-11-20T16:41:57;2.13;;;1.40;;
48215;SDS011;34005;48.844;10.098;2022-11-20T16:44:27;4.20;;;1.85;;
48215;SDS011;34005;48.844;10.098;2022-11-20T16:46:58;2.45;;;1.70;;
48215;SDS011;34005;48.844;10.098;2022-11-20T16:49:27;2.85;;;1.00;;
48215;SDS011;34005;48.844;10.098;2022-11-20T16:51:56;1.73;;;1.60;;
48215;SDS011;34005;48.844;10.098;2022-11-20T16:54:30;1.45;;;1.13;;
48215;SDS011;34005;48.844;10.098;2022-11-20T16:57:02;3.80;;;1.70;;
48215;SDS011;34005;48.844;10.098;2022-11-20T16:59:41;3.80;;;1.77;;
48215;SDS011;34005;48.844;10.098;2022-11-20T17:02:10;2.67;;;1.35;;
48215;SDS011;34005;48.844;10.098;2022-11-20T17:04:38;1.75;;;1.30;;
48215;SDS011;34005;48.844;10.098;2022-11-20T17:07:10;1.83;;;1.38;;
48215;SDS011;34005;48.844;10.098;2022-11-20T17:09:38;4.13;;;1.98;;